createdAt,value
2019-03-31T00:01:46.786Z,99954.84
2019-03-31T00:04:20.657Z,99961.81
2019-03-31T00:06:53.899Z,99958.45
2019-03-31T00:09:28.197Z,99947.50
2019-03-31T00:12:01.398Z,99944.38
2019-03-31T00:14:34.870Z,99953.22
2019-03-31T00:17:08.147Z,99952.63
2019-03-31T00:19:41.545Z,99936.48
2019-03-31T00:22:14.779Z,99944.85
2019-03-31T00:24:48.164Z,99954.02
2019-03-31T00:27:21.378Z,99941.23
2019-03-31T00:29:54.922Z,99937.17
2019-03-31T00:32:28.338Z,99932.63
2019-03-31T00:35:04.896Z,99928.90
2019-03-31T00:37:38.096Z,99931.34
2019-03-31T00:40:12.289Z,99930.08
2019-03-31T00:42:45.609Z,99946.94
2019-03-31T00:45:18.978Z,99943.44
2019-03-31T00:47:52.306Z,99950.17
2019-03-31T00:50:25.597Z,99963.55
2019-03-31T00:52:58.800Z,99956.58
2019-03-31T00:55:32.242Z,99970.95
2019-03-31T00:58:05.491Z,99967.84
2019-03-31T01:00:56.184Z,99958.55
2019-03-31T01:03:29.642Z,99957.03
2019-03-31T01:06:03.249Z,99956.11
2019-03-31T01:08:37.947Z,99959.34
2019-03-31T01:11:20.129Z,99957.02
2019-03-31T01:13:53.722Z,99964.58
2019-03-31T01:16:28.439Z,99974.11
2019-03-31T01:19:01.826Z,99974.11
2019-03-31T01:21:35.230Z,99972.95
2019-03-31T01:24:08.538Z,99979.32
2019-03-31T01:26:42.540Z,99978.16
2019-03-31T01:29:16.602Z,99987.13
2019-03-31T01:31:50.909Z,99983.27
2019-03-31T01:34:24.463Z,99983.40
2019-03-31T01:36:57.883Z,99994.08
2019-03-31T01:39:31.771Z,99988.86
2019-03-31T01:42:05.927Z,99986.64
2019-03-31T01:44:39.437Z,99994.44
2019-03-31T01:47:13.399Z,99988.98
2019-03-31T01:49:46.726Z,99997.44
2019-03-31T01:52:20.372Z,100002.91
2019-03-31T01:54:53.542Z,99999.44
2019-03-31T01:57:27.189Z,100000.69
2019-03-31T02:00:00.576Z,100006.16
2019-03-31T02:02:33.869Z,100017.55
2019-03-31T02:05:07.646Z,100015.80
2019-03-31T02:07:41.159Z,100018.80
2019-03-31T02:10:14.793Z,100020.52
2019-03-31T02:12:49.190Z,100019.36
2019-03-31T02:15:23.031Z,100021.78
2019-03-31T02:17:56.378Z,100027.80
2019-03-31T02:20:29.642Z,100029.91
2019-03-31T02:23:03.205Z,100027.20
2019-03-31T02:25:36.425Z,100027.91
2019-03-31T02:28:09.925Z,100020.72
2019-03-31T02:30:43.182Z,100028.95
2019-03-31T02:33:16.520Z,100031.02
2019-03-31T02:35:50.007Z,100026.20
2019-03-31T02:38:23.550Z,100034.55
2019-03-31T02:40:56.776Z,100036.25
2019-03-31T02:43:30.474Z,100040.17
2019-03-31T02:46:03.980Z,100042.67
2019-03-31T02:48:37.226Z,100052.05
2019-03-31T02:51:10.533Z,100052.83
2019-03-31T02:53:44.437Z,100057.46
2019-03-31T02:56:20.826Z,100061.50
2019-03-31T02:58:56.062Z,100055.45
2019-03-31T03:01:30.567Z,100063.33
2019-03-31T03:04:08.009Z,100070.95
2019-03-31T03:06:42.521Z,100068.86
2019-03-31T03:09:16.780Z,100070.09
2019-03-31T03:11:52.049Z,100062.06
2019-03-31T03:14:28.397Z,100062.59
2019-03-31T03:17:01.989Z,100066.95
2019-03-31T03:19:35.351Z,100068.80
2019-03-31T03:22:08.599Z,100063.09
2019-03-31T03:24:42.073Z,100059.83
2019-03-31T03:27:15.292Z,100065.11
2019-03-31T03:29:48.671Z,100068.66
2019-03-31T03:32:22.040Z,100067.37
2019-03-31T03:34:55.453Z,100068.03
2019-03-31T03:37:28.739Z,100063.38
2019-03-31T03:40:02.040Z,100066.64
2019-03-31T03:42:35.953Z,100066.41
2019-03-31T03:45:09.739Z,100070.58
2019-03-31T03:47:43.289Z,100066.16
2019-03-31T03:50:17.536Z,100071.41
2019-03-31T03:52:50.990Z,100072.20
2019-03-31T03:55:24.456Z,100069.19
2019-03-31T03:57:57.661Z,100081.70
2019-03-31T04:00:31.147Z,100080.06
2019-03-31T04:03:04.418Z,100087.60
2019-03-31T04:05:37.868Z,100094.20
2019-03-31T04:08:11.126Z,100093.16
2019-03-31T04:11:29.090Z,100089.34
2019-03-31T04:14:02.392Z,100085.97
2019-03-31T04:16:35.782Z,100100.45
2019-03-31T04:19:09.107Z,100100.45
2019-03-31T04:21:42.532Z,100098.72
2019-03-31T04:24:16.049Z,100104.28
2019-03-31T04:26:50.849Z,100112.52
2019-03-31T04:29:24.076Z,100114.95
2019-03-31T04:31:57.526Z,100117.42
2019-03-31T04:34:30.757Z,100115.58
2019-03-31T04:37:04.092Z,100114.37
2019-03-31T04:39:37.374Z,100113.15
2019-03-31T04:42:10.699Z,100114.09
2019-03-31T04:44:43.939Z,100117.84
2019-03-31T04:47:17.333Z,100118.57
2019-03-31T04:49:50.599Z,100123.13
2019-03-31T04:52:23.973Z,100122.81
2019-03-31T04:54:57.200Z,100128.75
2019-03-31T04:57:30.599Z,100134.48
2019-03-31T05:00:03.841Z,100139.12
2019-03-31T05:02:37.417Z,100136.58
2019-03-31T05:05:10.670Z,100139.95
2019-03-31T05:07:44.334Z,100138.55
2019-03-31T05:10:17.691Z,100141.34
2019-03-31T05:12:50.999Z,100143.05
2019-03-31T05:15:24.419Z,100149.55
2019-03-31T05:17:57.762Z,100146.28
2019-03-31T05:20:30.999Z,100153.80
2019-03-31T05:23:04.910Z,100155.29
2019-03-31T05:25:38.269Z,100154.56
2019-03-31T05:28:11.961Z,100166.28
2019-03-31T05:30:45.435Z,100171.84
2019-03-31T05:33:18.893Z,100178.21
2019-03-31T05:35:52.410Z,100178.21
2019-03-31T05:38:26.213Z,100182.63
2019-03-31T05:40:59.473Z,100188.78
2019-03-31T05:43:33.197Z,100194.90
2019-03-31T05:46:06.453Z,100188.53
2019-03-31T05:48:40.050Z,100200.15
2019-03-31T05:51:13.393Z,100199.80
2019-03-31T05:53:46.773Z,100202.03
2019-03-31T05:56:20.003Z,100206.41
2019-03-31T05:58:53.360Z,100195.28
2019-03-31T06:01:26.576Z,100200.64
2019-03-31T06:03:59.975Z,100192.84
2019-03-31T06:06:33.216Z,100205.02
2019-03-31T06:09:08.297Z,100197.75
2019-03-31T06:11:41.514Z,100198.80
2019-03-31T06:14:14.998Z,100201.83
2019-03-31T06:16:48.187Z,100193.97
2019-03-31T06:19:21.493Z,100201.97
2019-03-31T06:21:54.746Z,100206.38
2019-03-31T06:24:28.024Z,100209.89
2019-03-31T06:27:01.214Z,100210.63
2019-03-31T06:29:35.026Z,100208.89
2019-03-31T06:32:08.674Z,100217.72
2019-03-31T06:34:47.769Z,100221.80
2019-03-31T06:37:17.180Z,100225.06
2019-03-31T06:39:50.496Z,100235.61
2019-03-31T06:42:23.657Z,100241.77
2019-03-31T06:44:57.003Z,100236.69
2019-03-31T06:47:30.276Z,100244.02
2019-03-31T06:50:03.788Z,100238.73
2019-03-31T06:52:37.359Z,100242.62
2019-03-31T06:55:11.078Z,100240.36
2019-03-31T06:57:44.258Z,100239.75
2019-03-31T07:00:17.953Z,100243.19
2019-03-31T07:02:51.159Z,100236.17
2019-03-31T07:05:24.454Z,100242.73
2019-03-31T07:07:57.637Z,100251.83
2019-03-31T07:10:30.962Z,100248.63
2019-03-31T07:13:04.249Z,100251.79
2019-03-31T07:15:37.669Z,100255.06
2019-03-31T07:18:10.846Z,100256.34
2019-03-31T07:20:44.161Z,100257.25
2019-03-31T07:23:17.818Z,100259.11
2019-03-31T07:25:51.170Z,100266.51
2019-03-31T07:28:24.646Z,100264.02
2019-03-31T07:30:59.477Z,100262.84
2019-03-31T07:33:33.069Z,100260.38
2019-03-31T07:36:06.979Z,100263.38
2019-03-31T07:38:40.325Z,100261.86
2019-03-31T07:41:14.095Z,100269.38
2019-03-31T07:43:47.734Z,100268.94
2019-03-31T07:46:21.378Z,100284.33
2019-03-31T07:48:54.933Z,100286.05
2019-03-31T07:51:28.467Z,100287.97
2019-03-31T07:54:01.677Z,100286.83
2019-03-31T07:56:35.053Z,100295.81
2019-03-31T07:59:08.292Z,100298.31
2019-03-31T08:01:41.633Z,100294.06
2019-03-31T08:04:14.822Z,100297.20
2019-03-31T08:06:48.149Z,100295.42
2019-03-31T08:09:21.394Z,100296.32
2019-03-31T08:11:56.186Z,100295.52
2019-03-31T08:14:29.740Z,100298.20
2019-03-31T08:17:03.096Z,100295.91
2019-03-31T08:19:36.324Z,100295.22
2019-03-31T08:22:09.642Z,100299.22
2019-03-31T08:24:45.722Z,100297.97
2019-03-31T08:27:19.665Z,100297.76
2019-03-31T08:30:00.332Z,100294.06
2019-03-31T08:32:28.701Z,100296.19
2019-03-31T08:35:01.917Z,100292.16
2019-03-31T08:37:35.525Z,100296.84
2019-03-31T08:40:09.837Z,100289.02
2019-03-31T08:42:43.164Z,100302.14
2019-03-31T08:45:16.494Z,100306.32
2019-03-31T08:47:49.827Z,100305.28
2019-03-31T08:50:23.016Z,100303.95
2019-03-31T08:52:56.379Z,100304.55
2019-03-31T08:55:29.615Z,100306.28
2019-03-31T08:58:02.902Z,100310.77
2019-03-31T09:00:40.876Z,100302.77
2019-03-31T09:03:14.261Z,100303.92
2019-03-31T09:06:00.623Z,100296.16
2019-03-31T09:08:22.376Z,100298.35
2019-03-31T09:10:55.614Z,100298.00
2019-03-31T09:13:29.066Z,100295.22
2019-03-31T09:16:02.441Z,100289.20
2019-03-31T09:18:36.200Z,100297.72
2019-03-31T09:21:09.782Z,100296.19
2019-03-31T09:23:43.120Z,100300.12
2019-03-31T09:26:16.359Z,100298.59
2019-03-31T09:28:49.912Z,100289.85
2019-03-31T09:31:23.158Z,100293.88
2019-03-31T09:33:56.444Z,100294.20
2019-03-31T09:36:29.983Z,100290.37
2019-03-31T09:39:05.765Z,100289.78
2019-03-31T09:41:38.987Z,100296.03
2019-03-31T09:44:12.267Z,100301.60
2019-03-31T09:46:45.685Z,100302.55
2019-03-31T09:49:19.295Z,100306.80
2019-03-31T09:51:52.536Z,100306.73
2019-03-31T09:54:25.862Z,100299.84
2019-03-31T09:56:59.047Z,100306.05
2019-03-31T09:59:32.381Z,100298.07
2019-03-31T10:02:05.637Z,100301.27
2019-03-31T10:04:38.942Z,100296.08
2019-03-31T10:07:12.162Z,100308.13
2019-03-31T10:09:45.482Z,100309.38
2019-03-31T10:12:23.101Z,100304.55
2019-03-31T10:15:01.654Z,100312.41
2019-03-31T10:17:35.298Z,100315.64
2019-03-31T10:20:09.167Z,100315.30
2019-03-31T10:22:42.458Z,100316.59
2019-03-31T10:25:15.977Z,100316.66
2019-03-31T10:27:49.164Z,100314.74
2019-03-31T10:30:37.638Z,100315.75
2019-03-31T10:33:12.302Z,100318.73
2019-03-31T10:35:45.654Z,100318.44
2019-03-31T10:38:19.043Z,100315.45
2019-03-31T10:40:52.378Z,100309.31
2019-03-31T10:43:25.671Z,100312.31
2019-03-31T10:45:59.099Z,100308.96
2019-03-31T10:48:32.367Z,100311.98
2019-03-31T10:51:05.901Z,100310.59
2019-03-31T10:53:39.164Z,100310.91
2019-03-31T10:56:12.545Z,100309.62
2019-03-31T10:58:45.743Z,100314.53
2019-03-31T11:01:19.136Z,100313.03
2019-03-31T11:03:52.348Z,100306.73
2019-03-31T11:06:25.705Z,100311.37
2019-03-31T11:08:59.003Z,100312.88
2019-03-31T11:11:32.851Z,100320.40
2019-03-31T11:14:07.950Z,100326.45
2019-03-31T11:16:41.569Z,100329.80
2019-03-31T11:19:14.795Z,100336.31
2019-03-31T11:22:02.622Z,100343.36
2019-03-31T11:24:35.868Z,100336.95
2019-03-31T11:27:09.462Z,100335.25
2019-03-31T11:29:43.601Z,100332.91
2019-03-31T11:32:16.929Z,100328.81
2019-03-31T11:34:50.139Z,100325.81
2019-03-31T11:37:23.505Z,100329.75
2019-03-31T11:39:56.663Z,100330.55
2019-03-31T11:42:30.000Z,100328.49
2019-03-31T11:45:04.994Z,100331.66
2019-03-31T11:47:38.246Z,100328.20
2019-03-31T11:50:13.475Z,100326.36
2019-03-31T11:52:46.888Z,100327.81
2019-03-31T11:55:20.150Z,100324.47
2019-03-31T11:57:53.490Z,100321.64
2019-03-31T12:00:29.140Z,100320.08
2019-03-31T12:03:02.484Z,100320.39
2019-03-31T12:05:35.703Z,100328.11
2019-03-31T12:08:09.014Z,100326.97
2019-03-31T12:10:45.826Z,100323.19
2019-03-31T12:13:20.924Z,100320.09
2019-03-31T12:15:58.928Z,100327.91
2019-03-31T12:18:32.851Z,100325.13
2019-03-31T12:21:08.734Z,100329.74
2019-03-31T12:23:42.140Z,100320.09
2019-03-31T12:26:15.322Z,100317.42
2019-03-31T12:28:49.045Z,100323.91
2019-03-31T12:31:22.417Z,100330.64
2019-03-31T12:33:55.752Z,100329.65
2019-03-31T12:36:28.960Z,100336.01
2019-03-31T12:39:02.262Z,100333.88
2019-03-31T12:41:35.488Z,100332.22
2019-03-31T12:44:09.164Z,100333.11
2019-03-31T12:46:42.468Z,100327.23
2019-03-31T12:49:15.806Z,100338.25
2019-03-31T12:51:49.055Z,100329.20
2019-03-31T12:54:22.362Z,100334.66
2019-03-31T12:56:55.607Z,100337.34
2019-03-31T12:59:28.921Z,100333.88
2019-03-31T13:02:02.279Z,100338.68
2019-03-31T13:04:35.976Z,100335.67
2019-03-31T13:07:09.238Z,100338.41
2019-03-31T13:09:42.637Z,100339.02
2019-03-31T13:12:16.012Z,100339.88
2019-03-31T13:14:49.660Z,100345.98
2019-03-31T13:17:23.413Z,100339.73
2019-03-31T13:19:57.075Z,100347.16
2019-03-31T13:22:30.292Z,100349.27
2019-03-31T13:25:03.771Z,100344.28
2019-03-31T13:27:37.322Z,100346.48
2019-03-31T13:30:10.850Z,100350.91
2019-03-31T13:32:44.259Z,100349.75
2019-03-31T13:35:17.795Z,100351.51
2019-03-31T13:37:51.113Z,100354.31
2019-03-31T13:40:24.401Z,100353.64
2019-03-31T13:42:57.750Z,100354.92
2019-03-31T13:45:31.148Z,100360.98
2019-03-31T13:48:04.423Z,100366.80
2019-03-31T13:50:37.753Z,100359.83
2019-03-31T13:53:10.909Z,100364.25
2019-03-31T13:55:44.349Z,100369.36
2019-03-31T13:58:18.917Z,100367.97
2019-03-31T14:00:52.822Z,100367.88
2019-03-31T14:03:26.300Z,100369.97
2019-03-31T14:05:59.744Z,100377.19
2019-03-31T14:08:33.020Z,100376.03
2019-03-31T14:11:06.489Z,100370.69
2019-03-31T14:13:40.636Z,100369.17
2019-03-31T14:16:15.365Z,100368.61
2019-03-31T14:18:49.910Z,100375.47
2019-03-31T14:21:24.871Z,100378.74
2019-03-31T14:23:58.069Z,100374.92
2019-03-31T14:26:31.332Z,100378.55
2019-03-31T14:29:04.559Z,100378.31
2019-03-31T14:31:37.960Z,100379.51
2019-03-31T14:34:11.285Z,100383.46
2019-03-31T14:36:44.710Z,100379.66
2019-03-31T14:39:17.991Z,100373.95
2019-03-31T14:41:51.416Z,100378.63
2019-03-31T14:44:24.690Z,100377.94
2019-03-31T14:46:58.011Z,100372.11
2019-03-31T14:49:31.354Z,100374.91
2019-03-31T14:52:04.758Z,100380.85
2019-03-31T14:54:38.118Z,100382.81
2019-03-31T14:57:11.594Z,100382.69
2019-03-31T14:59:45.430Z,100387.09
2019-03-31T15:02:19.058Z,100382.98
2019-03-31T15:04:52.750Z,100379.27
2019-03-31T15:07:27.428Z,100390.08
2019-03-31T15:10:00.983Z,100388.08
2019-03-31T15:12:34.290Z,100385.97
2019-03-31T15:15:07.825Z,100386.64
2019-03-31T15:17:41.143Z,100388.52
2019-03-31T15:20:14.517Z,100392.09
2019-03-31T15:22:51.317Z,100395.67
2019-03-31T15:25:23.567Z,100402.84
2019-03-31T15:27:56.910Z,100404.95
2019-03-31T15:30:30.222Z,100405.98
2019-03-31T15:33:03.553Z,100406.17
2019-03-31T15:35:37.859Z,100408.11
2019-03-31T15:38:11.452Z,100413.07
2019-03-31T15:40:48.369Z,100412.94
2019-03-31T15:43:20.462Z,100412.25
2019-03-31T15:45:53.697Z,100417.66
2019-03-31T15:48:27.186Z,100425.38
2019-03-31T15:51:00.729Z,100414.44
2019-03-31T15:53:34.263Z,100428.01
2019-03-31T15:56:07.893Z,100431.46
2019-03-31T15:58:41.486Z,100436.23
2019-03-31T16:01:14.845Z,100435.16
2019-03-31T16:03:48.335Z,100431.67
2019-03-31T16:06:22.029Z,100433.14
2019-03-31T16:08:54.711Z,100439.66
2019-03-31T16:11:27.301Z,100442.20
2019-03-31T16:13:59.965Z,100445.66
2019-03-31T16:16:32.627Z,100444.02
2019-03-31T16:19:05.601Z,100446.00
2019-03-31T16:21:38.134Z,100451.23
2019-03-31T16:24:10.845Z,100449.84
2019-03-31T16:26:43.423Z,100446.80
2019-03-31T16:29:16.627Z,100453.53
2019-03-31T16:31:49.153Z,100444.36
2019-03-31T16:34:21.642Z,100451.89
2019-03-31T16:36:54.115Z,100452.48
2019-03-31T16:39:37.084Z,100450.25
2019-03-31T16:42:00.804Z,100450.84
2019-03-31T16:44:33.469Z,100455.38
2019-03-31T16:47:05.936Z,100451.51
2019-03-31T16:49:38.620Z,100454.89
2019-03-31T16:52:11.043Z,100455.80
2019-03-31T16:54:43.919Z,100458.83
2019-03-31T16:57:16.784Z,100458.48
2019-03-31T16:59:49.866Z,100463.49
2019-03-31T17:02:23.142Z,100466.17
2019-03-31T17:04:56.233Z,100461.09
2019-03-31T17:07:29.673Z,100461.65
2019-03-31T17:10:02.522Z,100465.59
2019-03-31T17:12:35.194Z,100461.41
2019-03-31T17:15:08.791Z,100465.94
2019-03-31T17:17:41.442Z,100457.92
2019-03-31T17:20:15.116Z,100459.88
2019-03-31T17:22:47.522Z,100463.01
2019-03-31T17:25:20.238Z,100459.73
2019-03-31T17:27:53.315Z,100465.89
2019-03-31T17:30:28.558Z,100467.29
2019-03-31T17:33:04.363Z,100466.14
2019-03-31T17:35:40.608Z,100466.94
2019-03-31T17:38:16.801Z,100469.23
2019-03-31T17:40:49.547Z,100470.87
2019-03-31T17:43:23.032Z,100469.73
2019-03-31T17:45:55.687Z,100474.40
2019-03-31T17:48:28.875Z,100474.95
2019-03-31T17:51:02.129Z,100475.55
2019-03-31T17:53:34.646Z,100480.39
2019-03-31T17:56:07.562Z,100481.30
2019-03-31T17:58:40.359Z,100483.94
2019-03-31T18:01:13.613Z,100479.05
2019-03-31T18:03:47.552Z,100479.12
2019-03-31T18:06:21.163Z,100477.73
2019-03-31T18:08:54.229Z,100481.67
2019-03-31T18:11:28.084Z,100486.19
2019-03-31T18:14:00.683Z,100486.19
2019-03-31T18:16:33.424Z,100489.08
2019-03-31T18:19:06.198Z,100486.95
2019-03-31T18:21:38.878Z,100478.79
2019-03-31T18:24:11.673Z,100481.89
2019-03-31T18:26:44.257Z,100481.98
2019-03-31T18:29:16.960Z,100486.52
2019-03-31T18:31:49.657Z,100482.64
2019-03-31T18:34:29.721Z,100476.86
2019-03-31T18:37:06.426Z,100472.69
2019-03-31T18:39:39.154Z,100483.58
2019-03-31T18:42:12.278Z,100484.48
2019-03-31T18:44:45.155Z,100478.07
2019-03-31T18:47:19.114Z,100469.16
2019-03-31T18:49:51.831Z,100475.22
2019-03-31T18:52:24.945Z,100477.42
2019-03-31T18:55:15.791Z,100466.28
2019-03-31T18:58:03.526Z,100482.98
2019-03-31T19:01:14.029Z,100479.16
2019-03-31T19:04:05.646Z,100481.70
2019-03-31T19:06:50.944Z,100480.16
2019-03-31T19:09:32.539Z,100475.14
2019-03-31T19:12:28.313Z,100469.33
2019-03-31T19:15:28.763Z,100477.13
2019-03-31T19:18:20.894Z,100481.05
2019-03-31T19:21:14.384Z,100474.59
2019-03-31T19:24:05.932Z,100468.77
2019-03-31T19:26:55.938Z,100469.81
2019-03-31T19:29:59.473Z,100473.19
2019-03-31T19:33:02.833Z,100472.60
2019-03-31T19:35:56.634Z,100477.83
2019-03-31T19:38:53.836Z,100465.08
2019-03-31T19:41:38.723Z,100469.41
2019-03-31T19:44:36.794Z,100469.89
2019-03-31T19:47:28.379Z,100467.91
2019-03-31T19:50:19.875Z,100473.73
2019-03-31T19:53:00.241Z,100474.87
2019-03-31T19:55:42.821Z,100471.28
2019-03-31T19:58:31.151Z,100476.77
2019-03-31T20:01:16.457Z,100477.01
2019-03-31T20:04:13.576Z,100471.99
2019-03-31T20:06:56.996Z,100473.38
2019-03-31T20:09:44.752Z,100479.80
2019-03-31T20:12:25.795Z,100478.05
2019-03-31T20:15:24.746Z,100473.88
2019-03-31T20:18:16.022Z,100473.08
2019-03-31T20:20:58.947Z,100474.22
2019-03-31T20:23:50.042Z,100477.01
2019-03-31T20:26:46.375Z,100473.14
2019-03-31T20:29:27.687Z,100478.31
2019-03-31T20:32:27.905Z,100482.25
2019-03-31T20:35:16.891Z,100475.28
2019-03-31T20:38:09.712Z,100472.84
2019-03-31T20:41:00.969Z,100474.73
2019-03-31T20:43:55.435Z,100473.34
2019-03-31T20:46:28.307Z,100476.12
2019-03-31T20:49:01.091Z,100470.86
2019-03-31T20:51:33.577Z,100478.07
2019-03-31T20:54:06.484Z,100476.92
2019-03-31T20:56:39.014Z,100481.34
2019-03-31T20:59:11.470Z,100484.53
2019-03-31T21:01:44.001Z,100478.30
2019-03-31T21:04:16.434Z,100472.62
2019-03-31T21:06:50.607Z,100471.83
2019-03-31T21:09:23.370Z,100479.11
2019-03-31T21:11:56.163Z,100481.25
2019-03-31T21:14:28.645Z,100483.98
2019-03-31T21:17:01.003Z,100486.72
2019-03-31T21:19:33.364Z,100483.52
2019-03-31T21:22:05.876Z,100483.33
2019-03-31T21:24:38.263Z,100482.62
2019-03-31T21:27:10.757Z,100484.42
2019-03-31T21:29:43.174Z,100483.68
2019-03-31T21:32:15.810Z,100480.44
2019-03-31T21:34:48.334Z,100483.53
2019-03-31T21:37:20.809Z,100483.88
2019-03-31T21:39:53.232Z,100486.75
2019-03-31T21:42:25.849Z,100479.30
2019-03-31T21:44:58.741Z,100485.42
2019-03-31T21:47:31.333Z,100483.22
2019-03-31T21:50:03.716Z,100488.20
2019-03-31T21:52:36.424Z,100487.41
2019-03-31T21:55:09.260Z,100492.72
2019-03-31T21:57:41.727Z,100485.20
2019-03-31T22:00:14.684Z,100485.20
2019-03-31T22:02:47.253Z,100478.46
2019-03-31T22:05:19.643Z,100487.65
2019-03-31T22:07:52.068Z,100478.70
2019-03-31T22:10:24.573Z,100475.13
2019-03-31T22:12:57.002Z,100480.59
2019-03-31T22:15:29.542Z,100476.66
2019-03-31T22:18:01.907Z,100478.55
2019-03-31T22:20:34.427Z,100475.77
2019-03-31T22:23:06.929Z,100469.05
2019-03-31T22:25:39.410Z,100464.04
2019-03-31T22:28:11.977Z,100467.31
2019-03-31T22:30:44.612Z,100467.91
2019-03-31T22:33:16.972Z,100470.69
2019-03-31T22:36:06.694Z,100467.17
2019-03-31T22:38:39.100Z,100472.24
2019-03-31T22:41:11.560Z,100463.15
2019-03-31T22:43:44.056Z,100461.30
2019-03-31T22:46:16.932Z,100460.22
2019-03-31T22:48:49.361Z,100459.75
2019-03-31T22:51:21.837Z,100462.53
2019-03-31T22:53:54.232Z,100454.19
2019-03-31T22:56:26.596Z,100452.55
2019-03-31T22:58:59.142Z,100456.97
2019-03-31T23:01:32.458Z,100451.16
2019-03-31T23:04:04.893Z,100443.70
2019-03-31T23:06:37.390Z,100450.17
2019-03-31T23:09:10.663Z,100450.27
2019-03-31T23:11:44.311Z,100447.58
2019-03-31T23:14:16.839Z,100450.36
2019-03-31T23:16:49.240Z,100450.11
2019-03-31T23:19:21.841Z,100445.69
2019-03-31T23:21:54.248Z,100442.66
2019-03-31T23:24:26.804Z,100442.66
2019-03-31T23:26:59.219Z,100443.80
2019-03-31T23:29:31.758Z,100439.38
2019-03-31T23:32:04.240Z,100430.78
2019-03-31T23:34:36.752Z,100430.29
2019-03-31T23:37:09.215Z,100426.21
2019-03-31T23:39:41.694Z,100426.45
2019-03-31T23:42:14.083Z,100423.43
2019-03-31T23:44:46.442Z,100426.21
2019-03-31T23:47:19.032Z,100426.30
2019-03-31T23:49:51.463Z,100425.01
2019-03-31T23:52:23.895Z,100420.89
2019-03-31T23:54:56.538Z,100426.21
2019-03-31T23:57:41.143Z,100424.91
